Time;durP1;ratioP1;P1;durP2;ratioP2;P2;SDS_P1;SDS_P2;PMS_P1;PMS_P2;Temp;Humidity;BMP_temperature;BMP_pressure;BME280_temperature;BME280_humidity;BME280_pressure;Samples;Min_cycle;Max_cycle;Signal;HPM_P1;HPM_P2
2021/09/14 00:02:18;;;;;;;8.68;5.60;;;;;;;;;;6203469;22;20240;-89
2021/09/14 00:05:25;;;;;;;13.60;5.82;;;;;;;;;;6203976;22;20172;-90
2021/09/14 00:08:30;;;;;;;10.48;5.68;;;;;;;;;;6205302;22;20180;-90
2021/09/14 00:11:36;;;;;;;14.65;5.57;;;;;;;;;;6203492;22;20155;-91
2021/09/14 00:14:42;;;;;;;12.77;6.15;;;;;;;;;;6203315;22;20211;-93
2021/09/14 00:17:47;;;;;;;10.40;6.10;;;;;;;;;;6203167;22;20168;-91
2021/09/14 00:20:54;;;;;;;10.35;6.10;;;;;;;;;;6203113;22;20223;-92
2021/09/14 00:24:00;;;;;;;10.95;5.97;;;;;;;;;;6204137;23;20175;-90
2021/09/14 00:27:06;;;;;;;11.00;5.65;;;;;;;;;;6204194;22;20175;-90
2021/09/14 00:30:12;;;;;;;11.75;5.65;;;;;;;;;;6203092;23;20171;-89
2021/09/14 00:33:19;;;;;;;9.02;5.10;;;;;;;;;;6202778;22;20220;-89
2021/09/14 00:36:26;;;;;;;9.40;5.68;;;;;;;;;;6203548;22;20220;-90
2021/09/14 00:39:34;;;;;;;11.68;5.50;;;;;;;;;;6205538;22;20168;-90
2021/09/14 00:42:39;;;;;;;8.25;5.05;;;;;;;;;;6204498;22;20204;-91
2021/09/14 00:45:44;;;;;;;9.75;5.72;;;;;;;;;;6204919;22;20255;-91
2021/09/14 00:48:49;;;;;;;8.05;5.13;;;;;;;;;;6205935;22;20175;-93
2021/09/14 00:51:56;;;;;;;9.23;5.30;;;;;;;;;;6205937;22;20171;-92
2021/09/14 00:55:03;;;;;;;7.32;5.13;;;;;;;;;;6205445;22;20148;-91
2021/09/14 00:58:09;;;;;;;10.23;5.57;;;;;;;;;;6203643;22;20175;-92
2021/09/14 01:01:15;;;;;;;8.93;5.13;;;;;;;;;;6205767;22;20175;-91
2021/09/14 01:04:21;;;;;;;15.38;5.57;;;;;;;;;;6204302;22;20171;-91
2021/09/14 01:07:28;;;;;;;9.98;5.40;;;;;;;;;;6205198;22;20199;-91
2021/09/14 01:10:35;;;;;;;7.65;5.03;;;;;;;;;;6204536;22;20213;-92
2021/09/14 01:13:42;;;;;;;10.75;5.60;;;;;;;;;;6205172;22;20240;-94
2021/09/14 01:16:48;;;;;;;10.93;5.82;;;;;;;;;;6204810;23;20184;-91
2021/09/14 01:19:53;;;;;;;12.15;5.82;;;;;;;;;;6203526;22;20180;-92
2021/09/14 01:23:00;;;;;;;12.02;5.78;;;;;;;;;;6203349;22;20167;-91
2021/09/14 01:26:06;;;;;;;13.77;5.97;;;;;;;;;;6202423;23;20179;-91
2021/09/14 01:30:11;;;;;;;9.90;5.78;;;;;;;;;;6204467;22;20172;-92
2021/09/14 01:32:39;;;;;;;10.57;5.57;;;;;;;;;;6204080;22;20167;-92
2021/09/14 01:35:45;;;;;;;12.80;5.82;;;;;;;;;;6203408;23;20167;-90
2021/09/14 01:38:53;;;;;;;8.02;5.40;;;;;;;;;;6203530;22;20180;-90
2021/09/14 01:41:59;;;;;;;9.50;5.78;;;;;;;;;;6203859;22;20590;-92
2021/09/14 01:45:04;;;;;;;8.63;5.70;;;;;;;;;;6205603;22;20219;-91
2021/09/14 01:48:10;;;;;;;12.90;5.15;;;;;;;;;;6204511;23;20192;-91
2021/09/14 01:51:18;;;;;;;9.88;5.22;;;;;;;;;;6203607;22;20187;-90
2021/09/14 01:54:25;;;;;;;9.88;5.18;;;;;;;;;;6203344;22;20168;-91
2021/09/14 01:57:33;;;;;;;8.98;5.47;;;;;;;;;;6203046;22;20227;-90
2021/09/14 02:00:43;;;;;;;11.50;6.20;;;;;;;;;;6203749;23;20179;-90
2021/09/14 02:03:58;;;;;;;9.30;5.38;;;;;;;;;;6203969;22;20168;-91
2021/09/14 02:29:53;;;;;;;11.90;6.70;;;;;;;;;;6196082;22;20188;-92
2021/09/14 03:01:36;;;;;;;10.85;5.95;;;;;;;;;;6205092;22;20206;-90
2021/09/14 03:04:43;;;;;;;12.65;6.78;;;;;;;;;;6205018;22;20205;-90
2021/09/14 03:07:49;;;;;;;10.68;5.97;;;;;;;;;;6205143;22;20202;-91
2021/09/14 03:10:54;;;;;;;14.57;7.13;;;;;;;;;;6205065;23;20180;-91
2021/09/14 03:14:00;;;;;;;13.48;6.80;;;;;;;;;;6204199;22;20188;-92
2021/09/14 03:17:08;;;;;;;13.05;7.30;;;;;;;;;;6204191;22;20240;-91
2021/09/14 03:20:13;;;;;;;11.02;6.57;;;;;;;;;;6205640;23;20172;-90
2021/09/14 03:23:19;;;;;;;13.63;7.30;;;;;;;;;;6204556;22;20223;-90
2021/09/14 03:26:25;;;;;;;12.70;6.93;;;;;;;;;;6204909;23;20167;-91
2021/09/14 03:29:31;;;;;;;17.35;7.15;;;;;;;;;;6204271;22;20288;-91
2021/09/14 03:32:38;;;;;;;13.70;7.38;;;;;;;;;;6202799;23;20163;-91
2021/09/14 03:35:44;;;;;;;11.18;6.45;;;;;;;;;;6204527;23;20143;-91
2021/09/14 03:38:50;;;;;;;13.60;7.38;;;;;;;;;;6204781;22;20167;-92
2021/09/14 03:41:56;;;;;;;14.75;7.22;;;;;;;;;;6204557;22;20164;-91
2021/09/14 03:45:01;;;;;;;12.85;6.90;;;;;;;;;;6205084;22;20168;-93
2021/09/14 03:48:10;;;;;;;11.57;6.82;;;;;;;;;;6203915;23;20259;-93
2021/09/14 03:51:15;;;;;;;12.68;7.40;;;;;;;;;;6204972;22;20152;-92
2021/09/14 03:54:22;;;;;;;10.25;6.47;;;;;;;;;;6204195;22;20219;-90
2021/09/14 03:57:27;;;;;;;14.43;6.93;;;;;;;;;;6204676;23;20200;-92
2021/09/14 04:05:08;;;;;;;11.73;6.57;;;;;;;;;;6205006;22;20219;-92
2021/09/14 04:11:38;;;;;;;13.65;7.03;;;;;;;;;;6202864;23;20588;-94
2021/09/14 04:14:43;;;;;;;18.23;6.85;;;;;;;;;;6204254;22;20193;-91
2021/09/14 04:17:49;;;;;;;12.73;6.78;;;;;;;;;;6204562;22;20176;-91
2021/09/14 04:20:56;;;;;;;13.20;7.15;;;;;;;;;;6204752;22;20644;-90
2021/09/14 04:24:01;;;;;;;13.43;7.00;;;;;;;;;;6204784;22;20215;-93
2021/09/14 04:27:12;;;;;;;12.55;7.53;;;;;;;;;;6202888;22;20244;-91
2021/09/14 04:30:18;;;;;;;13.35;7.53;;;;;;;;;;6205233;22;20175;-90
2021/09/14 04:33:26;;;;;;;15.40;8.00;;;;;;;;;;6205667;22;20505;-91
2021/09/14 04:36:35;;;;;;;19.63;8.40;;;;;;;;;;6205097;22;20171;-93
2021/09/14 04:39:42;;;;;;;15.40;7.55;;;;;;;;;;6204294;23;20224;-90
2021/09/14 04:42:49;;;;;;;14.98;7.82;;;;;;;;;;6203234;23;20171;-89
2021/09/14 04:46:26;;;;;;;18.73;7.95;;;;;;;;;;6203935;22;20168;-93
2021/09/14 11:41:00;;;;;;;4.78;2.97;;;;;;;;;;6118078;23;20177;-95
2021/09/14 11:44:07;;;;;;;5.63;3.75;;;;;;;;;;6098607;23;20630;-93
2021/09/14 11:47:12;;;;;;;6.95;3.63;;;;;;;;;;6099183;23;20243;-94
2021/09/14 11:50:25;;;;;;;3.75;3.28;;;;;;;;;;6098339;23;20181;-94
2021/09/14 11:53:30;;;;;;;5.43;3.60;;;;;;;;;;6099785;23;20177;-95
2021/09/14 12:00:15;;;;;;;6.35;3.28;;;;;;;;;;6094989;23;20194;-94
2021/09/14 12:03:22;;;;;;;6.03;3.20;;;;;;;;;;6094265;23;20614;-92
2021/09/14 12:06:27;;;;;;;5.82;3.38;;;;;;;;;;6093796;23;20173;-92
2021/09/14 12:09:33;;;;;;;7.20;3.35;;;;;;;;;;6093725;23;20246;-94
2021/09/14 12:12:39;;;;;;;5.22;3.13;;;;;;;;;;6095432;23;20173;-94
2021/09/14 12:15:45;;;;;;;4.95;3.58;;;;;;;;;;6094239;23;20173;-91
2021/09/14 12:18:50;;;;;;;4.22;3.15;;;;;;;;;;6092900;23;20164;-93
2021/09/14 12:21:56;;;;;;;6.63;3.58;;;;;;;;;;6091310;23;20617;-92
2021/09/14 12:25:01;;;;;;;5.45;3.50;;;;;;;;;;6093002;23;20173;-94
2021/09/14 12:28:08;;;;;;;4.55;3.28;;;;;;;;;;6095605;23;20601;-91
2021/09/14 12:31:13;;;;;;;4.50;3.60;;;;;;;;;;6092955;23;20185;-91
2021/09/14 12:34:18;;;;;;;6.47;3.45;;;;;;;;;;6091269;23;20177;-94
2021/09/14 12:37:24;;;;;;;7.55;4.10;;;;;;;;;;6095856;23;20165;-93
2021/09/14 12:40:29;;;;;;;4.43;3.05;;;;;;;;;;6099974;23;20202;-92
2021/09/14 12:43:36;;;;;;;4.40;2.70;;;;;;;;;;6098358;23;20238;-92
2021/09/14 12:46:48;;;;;;;5.18;2.92;;;;;;;;;;6098345;23;20188;-90
2021/09/14 12:49:53;;;;;;;5.03;2.83;;;;;;;;;;6097146;23;20197;-91
2021/09/14 12:53:03;;;;;;;3.70;2.85;;;;;;;;;;6098298;23;20209;-93
2021/09/14 12:56:13;;;;;;;4.18;3.10;;;;;;;;;;6098587;23;20161;-93
2021/09/14 12:59:20;;;;;;;3.63;2.55;;;;;;;;;;6098787;23;20237;-92
2021/09/14 13:02:25;;;;;;;4.43;2.90;;;;;;;;;;6096870;23;20173;-93
2021/09/14 13:05:31;;;;;;;5.13;3.60;;;;;;;;;;6097067;23;20620;-92
2021/09/14 13:08:37;;;;;;;4.00;2.90;;;;;;;;;;6097267;23;20193;-93
2021/09/14 13:11:42;;;;;;;7.75;2.90;;;;;;;;;;6097274;23;20164;-92
2021/09/14 13:18:12;;;;;;;5.30;2.70;;;;;;;;;;6097649;23;20174;-93
2021/09/14 13:21:19;;;;;;;5.85;2.83;;;;;;;;;;6098508;23;20676;-91
2021/09/14 13:24:24;;;;;;;6.63;2.95;;;;;;;;;;6097312;23;20173;-93
2021/09/14 13:27:30;;;;;;;6.40;2.85;;;;;;;;;;6094657;23;20202;-91
2021/09/14 13:30:37;;;;;;;4.68;2.75;;;;;;;;;;6095851;23;20168;-93
2021/09/14 13:33:42;;;;;;;4.20;2.67;;;;;;;;;;6097093;23;20217;-92
2021/09/14 13:36:48;;;;;;;3.58;2.50;;;;;;;;;;6092040;23;20501;-93
2021/09/14 13:40:03;;;;;;;4.63;2.70;;;;;;;;;;6093389;23;20181;-93
2021/09/14 13:43:09;;;;;;;4.28;3.00;;;;;;;;;;6096199;23;20181;-93
2021/09/14 13:46:14;;;;;;;7.50;3.08;;;;;;;;;;6096437;23;20173;-91
2021/09/14 13:52:39;;;;;;;5.88;3.30;;;;;;;;;;6094710;23;20504;-91
2021/09/14 13:55:46;;;;;;;5.68;2.80;;;;;;;;;;6094853;23;20257;-91
2021/09/14 13:58:52;;;;;;;4.30;3.42;;;;;;;;;;6094878;23;20173;-93
2021/09/14 14:02:19;;;;;;;5.32;3.20;;;;;;;;;;6098697;23;20238;-93
2021/09/14 14:05:28;;;;;;;5.10;3.13;;;;;;;;;;6100228;23;20276;-94
2021/09/14 14:08:41;;;;;;;4.00;2.63;;;;;;;;;;6098667;23;20188;-91
2021/09/14 14:11:48;;;;;;;4.18;3.03;;;;;;;;;;6098608;23;20173;-92
2021/09/14 14:18:14;;;;;;;4.10;3.05;;;;;;;;;;6100343;23;20267;-94
2021/09/14 14:21:20;;;;;;;7.22;3.35;;;;;;;;;;6100512;23;20285;-93
2021/09/14 14:27:46;;;;;;;6.63;3.25;;;;;;;;;;6100848;23;20237;-94
2021/09/14 14:31:02;;;;;;;5.43;2.90;;;;;;;;;;6098907;23;20169;-89
2021/09/14 14:34:22;;;;;;;6.25;2.85;;;;;;;;;;6099851;23;20174;-92
2021/09/14 14:37:32;;;;;;;5.65;3.17;;;;;;;;;;6115549;23;20188;-90
2021/09/14 14:40:38;;;;;;;4.05;2.88;;;;;;;;;;6102953;23;20170;-90
2021/09/14 14:43:45;;;;;;;4.38;3.05;;;;;;;;;;6101081;23;20181;-90
2021/09/14 14:46:51;;;;;;;5.40;3.03;;;;;;;;;;6100006;23;20681;-92
2021/09/14 14:49:56;;;;;;;3.70;2.70;;;;;;;;;;6098424;23;20196;-90
2021/09/14 14:53:05;;;;;;;6.22;2.97;;;;;;;;;;6099728;23;20217;-89
2021/09/14 14:56:10;;;;;;;5.93;3.20;;;;;;;;;;6096877;23;20181;-91
2021/09/14 14:59:18;;;;;;;6.70;3.05;;;;;;;;;;6099049;23;20173;-90
2021/09/14 15:02:24;;;;;;;5.90;3.17;;;;;;;;;;6097311;23;20185;-91
2021/09/14 15:05:29;;;;;;;5.22;3.28;;;;;;;;;;6097361;23;20169;-91
2021/09/14 15:08:36;;;;;;;5.85;3.55;;;;;;;;;;6096799;23;20192;-90
2021/09/14 15:11:41;;;;;;;6.00;3.65;;;;;;;;;;6096060;23;20185;-89
2021/09/14 15:14:47;;;;;;;8.77;3.78;;;;;;;;;;6098685;23;20172;-91
2021/09/14 15:17:53;;;;;;;8.40;4.82;;;;;;;;;;6099974;23;20270;-92
2021/09/14 15:20:58;;;;;;;8.57;4.20;;;;;;;;;;6099024;23;20228;-91
2021/09/14 15:24:05;;;;;;;7.85;3.45;;;;;;;;;;6101829;23;20226;-88
2021/09/14 15:27:14;;;;;;;5.72;3.30;;;;;;;;;;6102741;23;20153;-92
2021/09/14 15:30:29;;;;;;;9.30;3.25;;;;;;;;;;6103231;23;20201;-92
2021/09/14 19:28:23;;;;;;;14.85;8.32;;;;;;;;;;6150568;23;20208;-92
2021/09/14 19:31:29;;;;;;;16.35;8.75;;;;;;;;;;6204598;23;20170;-92
2021/09/14 19:34:35;;;;;;;11.25;7.63;;;;;;;;;;6204711;22;20176;-93
2021/09/14 19:37:40;;;;;;;12.43;7.15;;;;;;;;;;6205189;23;20238;-92
2021/09/14 19:40:45;;;;;;;10.75;7.18;;;;;;;;;;6203180;22;20228;-93
2021/09/14 19:43:53;;;;;;;13.82;6.78;;;;;;;;;;6202965;22;20211;-92
2021/09/14 19:46:59;;;;;;;13.15;6.60;;;;;;;;;;6203345;23;20164;-91
2021/09/14 19:50:04;;;;;;;11.98;6.88;;;;;;;;;;6201290;22;20195;-91
2021/09/14 19:53:10;;;;;;;12.73;7.00;;;;;;;;;;6203765;22;20188;-94
2021/09/14 19:56:16;;;;;;;14.77;7.22;;;;;;;;;;6203277;22;20168;-92
2021/09/14 19:59:26;;;;;;;10.32;6.75;;;;;;;;;;6203136;22;20172;-93
2021/09/14 20:02:33;;;;;;;14.15;7.15;;;;;;;;;;6202765;22;20172;-93
2021/09/14 20:05:38;;;;;;;10.30;6.25;;;;;;;;;;6201890;22;20234;-91
2021/09/14 20:08:43;;;;;;;12.27;6.68;;;;;;;;;;6201209;22;20163;-91
2021/09/14 20:11:49;;;;;;;12.65;7.45;;;;;;;;;;6201261;23;20235;-92
2021/09/14 20:14:56;;;;;;;15.10;7.90;;;;;;;;;;6202869;22;20226;-92
2021/09/14 20:18:02;;;;;;;13.85;6.72;;;;;;;;;;6202967;23;20246;-92
2021/09/14 20:21:08;;;;;;;15.02;7.05;;;;;;;;;;6205509;22;20192;-92
2021/09/14 20:24:13;;;;;;;11.45;7.25;;;;;;;;;;6204863;23;20551;-91
2021/09/14 20:27:21;;;;;;;15.52;7.78;;;;;;;;;;6203548;22;20199;-90
2021/09/14 20:30:28;;;;;;;13.85;7.22;;;;;;;;;;6203103;23;20211;-91
2021/09/14 20:33:34;;;;;;;11.45;7.30;;;;;;;;;;6203043;23;20163;-91
2021/09/14 20:36:39;;;;;;;13.32;7.30;;;;;;;;;;6202920;22;20168;-91
2021/09/14 20:39:45;;;;;;;16.55;7.53;;;;;;;;;;6205059;22;20152;-91
2021/09/14 20:42:51;;;;;;;14.65;8.18;;;;;;;;;;6205000;23;20168;-90
2021/09/14 20:45:57;;;;;;;12.27;7.20;;;;;;;;;;6203071;22;20168;-92
2021/09/14 20:49:03;;;;;;;12.73;7.78;;;;;;;;;;6200697;23;20270;-92
2021/09/14 20:52:08;;;;;;;11.65;7.47;;;;;;;;;;6202336;23;20163;-91
2021/09/14 20:55:15;;;;;;;14.35;8.90;;;;;;;;;;6200868;23;20180;-90
2021/09/14 20:58:22;;;;;;;13.65;7.57;;;;;;;;;;6201850;23;20183;-91
2021/09/14 21:01:30;;;;;;;10.32;6.90;;;;;;;;;;6203722;23;20180;-91
2021/09/14 21:04:37;;;;;;;15.77;7.80;;;;;;;;;;6203047;23;20236;-91
2021/09/14 21:07:42;;;;;;;25.70;14.65;;;;;;;;;;6202466;23;20168;-91
2021/09/14 21:10:48;;;;;;;11.68;7.80;;;;;;;;;;6204900;22;20231;-90
2021/09/14 21:13:56;;;;;;;12.15;7.18;;;;;;;;;;6211408;22;20176;-91
2021/09/14 21:17:13;;;;;;;16.48;7.38;;;;;;;;;;6206969;22;20160;-92
2021/09/14 21:20:20;;;;;;;12.05;7.55;;;;;;;;;;6208114;22;20192;-91
2021/09/14 22:01:38;;;;;;;11.93;7.45;;;;;;;;;;6163062;23;20212;-89
2021/09/14 22:04:45;;;;;;;25.63;8.60;;;;;;;;;;6200339;23;20151;-90
2021/09/14 22:07:50;;;;;;;13.45;7.43;;;;;;;;;;6200241;23;20195;-91
2021/09/14 22:10:55;;;;;;;11.63;7.60;;;;;;;;;;6200864;23;20195;-92
2021/09/14 22:14:01;;;;;;;12.25;7.43;;;;;;;;;;6200379;23;20168;-91
2021/09/14 22:17:09;;;;;;;12.70;7.80;;;;;;;;;;6198888;23;20167;-93
2021/09/14 22:20:15;;;;;;;12.88;7.95;;;;;;;;;;6198439;22;20159;-92
2021/09/14 22:23:20;;;;;;;13.32;8.50;;;;;;;;;;6199546;23;20172;-91
2021/09/14 22:26:27;;;;;;;13.98;7.93;;;;;;;;;;6200266;23;20288;-92
2021/09/14 22:29:33;;;;;;;17.50;9.98;;;;;;;;;;6198333;23;20195;-92
2021/09/14 22:32:44;;;;;;;14.90;8.60;;;;;;;;;;6200383;23;20175;-93
2021/09/14 22:35:48;;;;;;;16.00;8.13;;;;;;;;;;6199049;23;20168;-91
2021/09/14 22:38:54;;;;;;;12.93;7.43;;;;;;;;;;6201062;22;20171;-89
2021/09/14 22:41:59;;;;;;;11.18;7.70;;;;;;;;;;6201192;22;20167;-90
2021/09/14 22:45:05;;;;;;;10.32;7.28;;;;;;;;;;6201558;22;20172;-91
2021/09/14 22:48:11;;;;;;;13.13;6.93;;;;;;;;;;6201839;22;20171;-90
2021/09/14 22:51:17;;;;;;;13.27;7.28;;;;;;;;;;6200774;23;20248;-91
2021/09/14 22:54:22;;;;;;;13.70;7.07;;;;;;;;;;6202216;22;20499;-91
2021/09/14 22:57:27;;;;;;;17.38;7.40;;;;;;;;;;6201769;22;20200;-91
2021/09/14 23:00:32;;;;;;;14.07;7.57;;;;;;;;;;6199979;22;20168;-91
2021/09/14 23:03:39;;;;;;;13.85;7.57;;;;;;;;;;6199638;22;20168;-90
2021/09/14 23:06:45;;;;;;;11.75;6.97;;;;;;;;;;6198101;23;20172;-90
2021/09/14 23:09:50;;;;;;;12.32;7.30;;;;;;;;;;6199353;22;20195;-91
2021/09/14 23:12:55;;;;;;;11.00;7.38;;;;;;;;;;6196407;23;20176;-91
2021/09/14 23:16:01;;;;;;;11.70;6.47;;;;;;;;;;6200625;22;20224;-91
2021/09/14 23:19:07;;;;;;;12.45;7.38;;;;;;;;;;6201113;22;20217;-92
2021/09/14 23:22:13;;;;;;;14.45;7.68;;;;;;;;;;6198522;23;20168;-90
2021/09/14 23:25:18;;;;;;;13.30;7.25;;;;;;;;;;6200165;22;20151;-92
2021/09/14 23:28:26;;;;;;;20.50;11.05;;;;;;;;;;6198708;23;20227;-91
2021/09/14 23:31:31;;;;;;;12.30;7.45;;;;;;;;;;6199516;23;20314;-92
2021/09/14 23:34:38;;;;;;;13.43;7.50;;;;;;;;;;6198973;22;20212;-91
2021/09/14 23:37:43;;;;;;;9.48;6.78;;;;;;;;;;6198050;23;20493;-92
2021/09/14 23:40:48;;;;;;;12.38;6.78;;;;;;;;;;6198329;22;20212;-91
2021/09/14 23:43:54;;;;;;;10.88;7.20;;;;;;;;;;6199541;22;20171;-91
2021/09/14 23:46:59;;;;;;;13.85;7.47;;;;;;;;;;6197962;23;20670;-91
2021/09/14 23:50:06;;;;;;;10.10;6.53;;;;;;;;;;6199817;22;20174;-91
2021/09/14 23:53:11;;;;;;;11.73;6.50;;;;;;;;;;6200561;22;20164;-90
2021/09/14 23:56:17;;;;;;;10.10;6.68;;;;;;;;;;6199071;22;20172;-90
2021/09/14 23:59:22;;;;;;;11.55;7.50;;;;;;;;;;6198830;22;20666;-92
